createdAt,value
2022-08-07T00:00:40.184Z,81.30
2022-08-07T00:03:09.261Z,80.80
2022-08-07T00:05:37.220Z,81.00
2022-08-07T00:08:05.697Z,81.00
2022-08-07T00:10:35.339Z,81.40
2022-08-07T00:13:23.562Z,81.10
2022-08-07T00:15:52.749Z,82.00
2022-08-07T00:18:25.058Z,81.80
2022-08-07T00:21:01.989Z,82.10
2022-08-07T00:23:35.049Z,82.80
2022-08-07T00:26:13.363Z,83.20
2022-08-07T00:28:56.760Z,81.70
2022-08-07T00:31:38.060Z,81.50
2022-08-07T00:34:09.406Z,81.70
2022-08-07T00:36:38.694Z,81.50
2022-08-07T00:39:16.255Z,82.20
2022-08-07T00:42:02.293Z,81.90
2022-08-07T00:44:34.981Z,84.10
2022-08-07T00:47:15.918Z,82.10
2022-08-07T00:50:21.486Z,82.60
2022-08-07T00:52:41.194Z,82.60
2022-08-07T00:55:10.600Z,82.40
2022-08-07T00:57:38.267Z,82.20
2022-08-07T01:00:23.164Z,82.60
2022-08-07T01:02:51.465Z,82.80
2022-08-07T01:05:20.979Z,83.20
2022-08-07T01:07:51.747Z,84.30
2022-08-07T01:10:19.965Z,83.40
2022-08-07T01:12:53.933Z,83.50
2022-08-07T01:15:36.052Z,83.10
2022-08-07T01:18:17.176Z,83.00
2022-08-07T01:20:59.582Z,82.90
2022-08-07T01:23:36.868Z,84.40
2022-08-07T01:26:11.823Z,84.40
2022-08-07T01:28:51.333Z,83.60
2022-08-07T01:31:40.899Z,84.30
2022-08-07T01:34:14.504Z,83.50
2022-08-07T01:36:44.145Z,83.30
2022-08-07T01:39:17.303Z,83.00
2022-08-07T01:42:07.481Z,83.00
2022-08-07T01:44:42.105Z,84.80
2022-08-07T01:48:18.385Z,84.30
2022-08-07T01:49:57.779Z,83.60
2022-08-07T01:52:31.207Z,83.20
2022-08-07T01:54:59.893Z,85.60
2022-08-07T01:58:05.988Z,84.10
2022-08-07T02:00:28.698Z,85.20
2022-08-07T02:03:12.110Z,84.50
2022-08-07T02:05:59.720Z,85.60
2022-08-07T02:08:30.604Z,85.80
2022-08-07T02:11:00.343Z,84.90
2022-08-07T02:13:57.567Z,85.10
2022-08-07T02:16:28.586Z,85.20
2022-08-07T02:20:06.918Z,85.60
2022-08-07T02:21:58.808Z,85.90
2022-08-07T02:24:29.286Z,85.40
2022-08-07T02:27:01.494Z,85.80
2022-08-07T02:29:32.548Z,85.10
2022-08-07T02:32:04.264Z,85.60
2022-08-07T02:34:32.198Z,85.20
2022-08-07T02:37:08.173Z,85.10
2022-08-07T02:39:43.004Z,86.00
2022-08-07T02:42:16.207Z,86.60
2022-08-07T02:44:49.044Z,85.60
2022-08-07T02:47:23.777Z,86.10
2022-08-07T02:50:14.673Z,84.90
2022-08-07T02:52:47.794Z,85.20
2022-08-07T02:55:28.561Z,86.20
2022-08-07T02:58:17.490Z,85.90
2022-08-07T03:00:52.037Z,86.70
2022-08-07T03:03:22.791Z,86.80
2022-08-07T03:05:55.034Z,86.10
2022-08-07T03:08:26.777Z,86.10
2022-08-07T03:10:59.631Z,85.40
2022-08-07T03:13:38.791Z,85.70
2022-08-07T03:16:17.187Z,85.30
2022-08-07T03:18:45.481Z,85.60
2022-08-07T03:21:18.862Z,86.40
2022-08-07T03:24:19.307Z,86.00
2022-08-07T03:26:51.024Z,86.80
2022-08-07T03:29:27.636Z,86.20
2022-08-07T03:31:56.146Z,85.60
2022-08-07T03:34:27.408Z,86.30
2022-08-07T03:36:59.824Z,85.80
2022-08-07T03:39:46.437Z,86.80
2022-08-07T03:42:29.826Z,86.00
2022-08-07T03:44:57.796Z,86.10
2022-08-07T03:47:29.609Z,86.50
2022-08-07T03:50:19.624Z,87.40
2022-08-07T03:52:52.286Z,87.30
2022-08-07T03:55:20.033Z,87.70
2022-08-07T03:58:33.841Z,86.60
2022-08-07T04:00:46.191Z,87.20
2022-08-07T04:03:14.458Z,87.70
2022-08-07T04:05:42.508Z,86.90
2022-08-07T04:08:21.132Z,87.20
2022-08-07T04:10:53.893Z,86.80
2022-08-07T04:14:10.942Z,86.70
2022-08-07T04:16:31.210Z,87.30
2022-08-07T04:19:04.217Z,87.40
2022-08-07T04:21:58.801Z,87.20
2022-08-07T04:24:34.195Z,87.00
2022-08-07T04:27:20.763Z,87.70
2022-08-07T04:30:01.229Z,87.00
2022-08-07T04:32:37.864Z,88.00
2022-08-07T04:35:11.323Z,87.20
2022-08-07T04:38:01.198Z,87.50
2022-08-07T04:40:31.400Z,88.60
2022-08-07T04:43:02.102Z,86.80
2022-08-07T04:46:01.250Z,87.30
2022-08-07T04:48:40.796Z,88.30
2022-08-07T04:51:16.220Z,88.40
2022-08-07T04:54:05.105Z,87.30
2022-08-07T04:58:14.296Z,88.40
2022-08-07T05:00:09.539Z,88.90
2022-08-07T05:02:44.786Z,88.50
2022-08-07T05:05:52.586Z,86.90
2022-08-07T05:08:58.910Z,90.00
2022-08-07T05:11:58.730Z,90.00
2022-08-07T05:14:55.526Z,89.70
2022-08-07T05:17:51.965Z,89.10
2022-08-07T05:20:25.776Z,88.40
2022-08-07T05:23:02.051Z,89.00
2022-08-07T05:25:54.373Z,89.80
2022-08-07T05:28:23.440Z,89.40
2022-08-07T05:30:57.210Z,89.20
2022-08-07T05:33:28.704Z,89.00
2022-08-07T05:35:58.402Z,90.00
2022-08-07T05:39:00.058Z,88.00
2022-08-07T05:41:18.292Z,87.80
2022-08-07T05:44:12.769Z,87.50
2022-08-07T05:46:46.194Z,88.70
2022-08-07T05:49:23.790Z,87.80
2022-08-07T05:51:52.270Z,86.90
2022-08-07T05:54:31.096Z,87.20
2022-08-07T05:57:12.399Z,87.20
2022-08-07T05:59:58.021Z,87.60
2022-08-07T06:02:33.074Z,88.00
2022-08-07T06:05:08.083Z,88.10
2022-08-07T06:08:29.404Z,87.90
2022-08-07T06:10:28.122Z,86.90
2022-08-07T06:12:55.800Z,87.00
2022-08-07T06:15:42.428Z,85.80
2022-08-07T06:18:14.080Z,85.60
2022-08-07T06:20:50.699Z,84.90
2022-08-07T06:24:36.814Z,85.60
2022-08-07T06:26:22.030Z,84.00
2022-08-07T06:28:58.991Z,84.20
2022-08-07T06:31:46.962Z,83.80
2022-08-07T06:34:16.086Z,82.50
2022-08-07T06:36:47.126Z,82.30
2022-08-07T06:40:17.393Z,81.60
2022-08-07T06:42:12.069Z,81.20
2022-08-07T06:45:02.739Z,82.70
2022-08-07T06:47:47.912Z,81.10
2022-08-07T06:50:18.954Z,81.00
2022-08-07T06:52:53.182Z,79.10
2022-08-07T06:55:53.777Z,80.00
2022-08-07T06:58:16.853Z,79.40
2022-08-07T07:00:54.968Z,78.00
2022-08-07T07:03:26.459Z,76.90
2022-08-07T07:06:10.999Z,76.10
2022-08-07T07:08:46.333Z,76.40
2022-08-07T07:12:08.195Z,74.80
2022-08-07T07:14:02.922Z,74.10
2022-08-07T07:16:45.379Z,73.90
2022-08-07T07:19:56.374Z,73.80
2022-08-07T07:22:35.600Z,72.90
2022-08-07T07:25:02.884Z,71.60
2022-08-07T07:27:58.475Z,71.00
2022-08-07T07:30:43.078Z,71.40
2022-08-07T07:33:13.517Z,71.20
2022-08-07T07:36:04.849Z,70.20
2022-08-07T07:38:34.686Z,68.90
2022-08-07T07:41:08.921Z,67.60
2022-08-07T07:44:14.262Z,67.40
2022-08-07T07:46:37.730Z,66.10
2022-08-07T07:50:32.935Z,64.80
2022-08-07T07:52:07.334Z,65.20
2022-08-07T07:54:37.655Z,63.70
2022-08-07T07:57:09.108Z,63.00
2022-08-07T07:59:51.596Z,62.70
2022-08-07T08:02:33.735Z,61.70
2022-08-07T08:05:14.213Z,61.50
2022-08-07T08:07:59.811Z,60.60
2022-08-07T08:10:37.699Z,60.20
2022-08-07T08:13:10.475Z,60.30
2022-08-07T08:15:58.487Z,59.60
2022-08-07T08:18:29.125Z,58.60
2022-08-07T08:21:00.339Z,58.40
2022-08-07T08:23:49.828Z,57.20
2022-08-07T08:26:58.076Z,57.10
2022-08-07T08:29:31.514Z,56.60
2022-08-07T08:32:16.965Z,56.30
2022-08-07T08:34:48.797Z,55.90
2022-08-07T08:37:59.196Z,55.20
2022-08-07T08:40:16.329Z,53.80
2022-08-07T08:42:58.669Z,53.80
2022-08-07T08:46:00.858Z,53.10
2022-08-07T08:48:38.405Z,51.90
2022-08-07T08:51:29.600Z,52.20
2022-08-07T08:54:22.554Z,52.60
2022-08-07T08:56:53.887Z,51.90
2022-08-07T08:59:48.435Z,51.10
2022-08-07T09:02:40.463Z,51.30
2022-08-07T09:05:46.714Z,49.90
2022-08-07T09:08:33.815Z,50.20
2022-08-07T09:11:24.278Z,50.00
2022-08-07T09:14:30.507Z,49.20
2022-08-07T09:17:24.331Z,49.70
2022-08-07T09:20:35.489Z,47.10
2022-08-07T09:24:30.793Z,46.90
2022-08-07T09:26:38.073Z,46.00
2022-08-07T09:30:01.360Z,45.40
2022-08-07T09:32:31.306Z,43.90
2022-08-07T09:36:05.246Z,42.70
2022-08-07T09:38:12.838Z,41.70
2022-08-07T09:40:55.363Z,41.70
2022-08-07T09:44:05.725Z,40.10
2022-08-07T09:47:49.712Z,40.30
2022-08-07T09:50:18.962Z,39.70
2022-08-07T09:52:53.822Z,39.30
2022-08-07T09:55:29.601Z,39.10
2022-08-07T09:58:42.456Z,37.90
2022-08-07T10:01:51.524Z,37.10
2022-08-07T10:04:32.907Z,36.30
2022-08-07T10:07:03.154Z,36.80
2022-08-07T10:10:00.755Z,37.10
2022-08-07T10:12:54.875Z,35.90
2022-08-07T10:15:46.397Z,35.20
2022-08-07T10:18:26.671Z,34.40
2022-08-07T10:22:14.473Z,34.00
2022-08-07T10:24:18.403Z,33.40
2022-08-07T10:27:13.218Z,33.60
2022-08-07T10:30:12.200Z,33.00
2022-08-07T10:33:01.537Z,32.40
2022-08-07T10:36:10.836Z,31.80
2022-08-07T10:38:57.505Z,31.50
2022-08-07T10:41:53.804Z,31.40
2022-08-07T10:44:39.059Z,31.60
2022-08-07T10:47:11.530Z,30.40
2022-08-07T10:49:50.951Z,31.00
2022-08-07T10:52:48.682Z,30.30
2022-08-07T10:55:36.937Z,30.00
2022-08-07T10:58:12.804Z,30.20
2022-08-07T11:01:03.345Z,29.40
2022-08-07T11:03:54.861Z,29.30
2022-08-07T11:06:56.008Z,28.70
2022-08-07T11:10:09.047Z,28.60
2022-08-07T11:12:31.686Z,28.70
2022-08-07T11:15:14.487Z,28.20
2022-08-07T11:18:03.730Z,28.00
2022-08-07T11:20:37.347Z,27.80
2022-08-07T11:24:00.372Z,27.50
2022-08-07T11:26:43.435Z,27.90
2022-08-07T11:29:42.008Z,27.50
2022-08-07T11:32:32.350Z,27.40
2022-08-07T11:35:09.395Z,27.80
2022-08-07T11:37:57.778Z,26.50
2022-08-07T11:40:56.568Z,26.20
2022-08-07T11:43:41.353Z,26.00
2022-08-07T11:46:42.314Z,25.20
2022-08-07T11:50:30.186Z,25.60
2022-08-07T11:52:53.434Z,25.30
2022-08-07T11:56:08.633Z,25.00
2022-08-07T11:59:00.949Z,25.40
2022-08-07T12:02:00.785Z,25.10
2022-08-07T12:04:57.701Z,25.10
2022-08-07T12:07:38.992Z,24.90
2022-08-07T12:10:19.350Z,24.70
2022-08-07T12:13:17.022Z,24.50
2022-08-07T12:16:05.591Z,23.90
2022-08-07T12:18:37.174Z,24.10
2022-08-07T12:21:14.936Z,24.10
2022-08-07T12:24:06.066Z,24.00
2022-08-07T12:26:53.467Z,24.00
2022-08-07T12:29:38.179Z,24.00
2022-08-07T12:32:38.067Z,23.80
2022-08-07T12:35:10.350Z,23.40
2022-08-07T12:38:11.531Z,23.40
2022-08-07T12:40:48.853Z,23.70
2022-08-07T12:44:01.331Z,22.80
2022-08-07T12:46:26.494Z,22.40
2022-08-07T12:49:40.112Z,22.40
2022-08-07T12:52:27.044Z,22.20
2022-08-07T12:55:17.729Z,21.50
2022-08-07T12:58:00.820Z,21.50
2022-08-07T13:01:15.821Z,22.20
2022-08-07T13:04:09.827Z,21.60
2022-08-07T13:08:14.121Z,22.00
2022-08-07T13:10:39.563Z,22.20
2022-08-07T13:13:48.261Z,22.30
2022-08-07T13:16:42.011Z,22.30
2022-08-07T13:19:45.883Z,22.50
2022-08-07T13:22:36.287Z,22.50
2022-08-07T13:25:10.570Z,22.70
2022-08-07T13:28:14.550Z,22.60
2022-08-07T13:31:01.690Z,21.90
2022-08-07T13:34:34.583Z,21.70
2022-08-07T13:36:39.724Z,22.30
2022-08-07T13:39:12.959Z,22.70
2022-08-07T13:41:59.288Z,22.70
2022-08-07T13:44:55.208Z,22.70
2022-08-07T13:48:06.436Z,23.20
2022-08-07T13:50:35.518Z,22.50
2022-08-07T13:53:21.839Z,22.70
2022-08-07T13:55:54.359Z,22.20
2022-08-07T13:58:56.580Z,21.60
2022-08-07T14:01:26.376Z,21.60
2022-08-07T14:04:09.618Z,21.70
2022-08-07T14:06:41.959Z,22.50
2022-08-07T14:09:17.118Z,21.60
2022-08-07T14:12:07.381Z,21.30
2022-08-07T14:14:48.145Z,21.20
2022-08-07T14:18:12.125Z,21.60
2022-08-07T14:20:42.873Z,21.50
2022-08-07T14:23:18.029Z,21.20
2022-08-07T14:26:28.405Z,21.10
2022-08-07T14:29:04.477Z,20.50
2022-08-07T14:31:42.814Z,20.30
2022-08-07T14:34:29.201Z,20.30
2022-08-07T14:37:02.022Z,20.30
2022-08-07T14:40:16.376Z,20.30
2022-08-07T14:48:07.349Z,20.50
2022-08-07T14:50:37.520Z,20.80
2022-08-07T14:53:09.671Z,21.30
2022-08-07T14:55:56.367Z,21.60
2022-08-07T14:58:31.430Z,21.30
2022-08-07T15:01:00.294Z,21.40
2022-08-07T15:03:52.767Z,21.00
2022-08-07T15:06:25.590Z,20.70
2022-08-07T15:08:54.942Z,21.20
2022-08-07T15:11:54.033Z,21.30
2022-08-07T15:14:20.787Z,21.30
2022-08-07T15:17:12.768Z,21.80
2022-08-07T15:20:32.778Z,22.40
2022-08-07T15:22:53.651Z,22.00
2022-08-07T15:28:31.417Z,21.60
2022-08-07T15:31:06.694Z,23.40
2022-08-07T15:33:36.796Z,23.10
2022-08-07T15:36:07.702Z,23.40
2022-08-07T15:38:59.123Z,23.30
2022-08-07T15:42:42.448Z,23.10
2022-08-07T15:44:20.751Z,22.90
2022-08-07T15:46:55.558Z,22.80
2022-08-07T15:52:30.231Z,23.80
2022-08-07T15:55:03.446Z,24.10
2022-08-07T15:57:48.904Z,24.60
2022-08-07T16:00:31.713Z,25.10
2022-08-07T16:03:21.669Z,25.10
2022-08-07T16:05:56.462Z,25.50
2022-08-07T16:08:33.218Z,26.30
2022-08-07T16:11:26.592Z,26.00
2022-08-07T16:14:09.287Z,25.90
2022-08-07T16:17:03.103Z,25.70
2022-08-07T16:19:59.722Z,25.80
2022-08-07T16:22:54.616Z,25.90
2022-08-07T16:25:54.187Z,26.00
2022-08-07T16:30:09.135Z,26.40
2022-08-07T16:31:50.773Z,26.50
2022-08-07T16:34:48.181Z,26.60
2022-08-07T16:38:05.759Z,27.40
2022-08-07T16:40:31.865Z,28.10
2022-08-07T16:43:17.095Z,28.80
2022-08-07T16:46:33.087Z,29.00
2022-08-07T16:50:20.314Z,29.00
2022-08-07T16:52:51.809Z,29.10
2022-08-07T16:55:17.432Z,29.50
2022-08-07T16:58:02.034Z,29.90
2022-08-07T17:01:16.967Z,29.70
2022-08-07T17:04:31.090Z,29.40
2022-08-07T17:07:51.310Z,29.80
2022-08-07T17:10:33.062Z,30.60
2022-08-07T17:13:20.178Z,31.10
2022-08-07T17:15:57.663Z,31.70
2022-08-07T17:18:37.409Z,30.60
2022-08-07T17:21:18.488Z,31.70
2022-08-07T17:23:54.885Z,31.60
2022-08-07T17:26:51.364Z,32.30
2022-08-07T17:30:16.159Z,32.20
2022-08-07T17:32:30.760Z,32.40
2022-08-07T17:35:51.138Z,32.20
2022-08-07T17:38:12.729Z,32.50
2022-08-07T17:42:00.849Z,33.00
2022-08-07T17:44:34.119Z,32.80
2022-08-07T17:47:16.563Z,33.10
2022-08-07T17:50:16.701Z,33.10
2022-08-07T17:52:59.018Z,33.20
2022-08-07T17:56:01.225Z,33.30
2022-08-07T17:58:46.502Z,33.50
2022-08-07T18:01:22.593Z,34.50
2022-08-07T18:04:24.699Z,34.80
2022-08-07T18:07:20.725Z,35.20
2022-08-07T18:10:07.499Z,35.10
2022-08-07T18:12:58.476Z,35.60
2022-08-07T18:15:32.667Z,35.40
2022-08-07T18:18:47.450Z,35.80
2022-08-07T18:21:53.379Z,36.30
2022-08-07T18:24:33.843Z,36.80
2022-08-07T18:27:38.172Z,37.80
2022-08-07T18:30:31.609Z,37.30
2022-08-07T18:33:36.618Z,37.60
2022-08-07T18:36:12.658Z,38.00
2022-08-07T18:40:04.833Z,38.80
2022-08-07T18:41:45.685Z,39.10
2022-08-07T18:44:19.080Z,39.90
2022-08-07T18:47:07.056Z,41.60
2022-08-07T18:50:30.516Z,41.60
2022-08-07T18:52:54.977Z,41.90
2022-08-07T18:55:57.194Z,42.30
2022-08-07T18:58:33.976Z,43.90
2022-08-07T19:01:03.827Z,43.70
2022-08-07T19:03:52.069Z,44.80
2022-08-07T19:06:33.561Z,45.40
2022-08-07T19:09:56.886Z,45.30
2022-08-07T19:12:16.081Z,46.00
2022-08-07T19:14:53.099Z,46.80
2022-08-07T19:17:58.996Z,47.90
2022-08-07T19:20:29.313Z,47.70
2022-08-07T19:23:18.478Z,48.40
2022-08-07T19:26:24.871Z,49.70
2022-08-07T19:30:55.907Z,49.80
2022-08-07T19:32:07.745Z,50.30
2022-08-07T19:34:32.484Z,51.20
2022-08-07T19:37:16.884Z,51.00
2022-08-07T19:39:57.771Z,52.00
2022-08-07T19:42:31.557Z,52.60
2022-08-07T19:45:09.500Z,53.20
2022-08-07T19:47:42.131Z,54.10
2022-08-07T19:50:44.466Z,54.90
2022-08-07T19:52:59.388Z,54.70
2022-08-07T19:55:57.750Z,55.50
2022-08-07T19:58:28.167Z,56.70
2022-08-07T20:00:57.509Z,56.20
2022-08-07T20:03:35.280Z,57.30
2022-08-07T20:06:06.346Z,57.60
2022-08-07T20:08:48.801Z,58.40
2022-08-07T20:11:34.323Z,59.00
2022-08-07T20:14:20.839Z,59.50
2022-08-07T20:16:54.533Z,59.60
2022-08-07T20:19:28.821Z,59.70
2022-08-07T20:22:15.593Z,60.20
2022-08-07T20:24:48.170Z,61.10
2022-08-07T20:27:42.973Z,61.70
2022-08-07T20:30:07.761Z,61.40
2022-08-07T20:32:46.674Z,61.20
2022-08-07T20:35:26.289Z,62.70
2022-08-07T20:37:58.329Z,62.80
2022-08-07T20:40:34.499Z,61.30
2022-08-07T20:43:09.573Z,62.20
2022-08-07T20:46:25.593Z,62.90
2022-08-07T20:48:33.974Z,63.10
2022-08-07T20:51:09.786Z,63.10
2022-08-07T20:54:03.284Z,63.60
2022-08-07T20:56:32.304Z,64.30
2022-08-07T20:59:05.121Z,64.70
2022-08-07T21:01:45.793Z,65.10
2022-08-07T21:04:27.917Z,64.20
2022-08-07T21:07:04.546Z,65.60
2022-08-07T21:09:52.436Z,64.60
2022-08-07T21:12:31.057Z,64.40
2022-08-07T21:15:03.188Z,66.60
2022-08-07T21:18:03.121Z,66.00
2022-08-07T21:20:30.224Z,67.70
2022-08-07T21:23:07.611Z,67.70
2022-08-07T21:25:50.894Z,68.10
2022-08-07T21:28:49.299Z,68.40
2022-08-07T21:31:49.589Z,69.30
2022-08-07T21:34:31.981Z,67.20
2022-08-07T21:37:13.203Z,69.70
2022-08-07T21:39:56.518Z,69.60
2022-08-07T21:42:49.477Z,70.00
2022-08-07T21:46:09.720Z,70.10
2022-08-07T21:48:55.733Z,70.50
2022-08-07T21:51:50.823Z,70.40
2022-08-07T21:54:33.856Z,71.70
2022-08-07T21:57:40.027Z,72.10
2022-08-07T22:00:22.723Z,71.60
2022-08-07T22:03:06.897Z,71.90
2022-08-07T22:05:54.825Z,72.10
2022-08-07T22:08:26.686Z,73.00
2022-08-07T22:10:59.856Z,72.30
2022-08-07T22:13:51.823Z,72.80
2022-08-07T22:16:40.234Z,72.10
2022-08-07T22:19:32.173Z,71.80
2022-08-07T22:22:28.852Z,72.40
2022-08-07T22:25:07.599Z,73.10
2022-08-07T22:28:15.129Z,73.40
2022-08-07T22:30:58.437Z,74.20
2022-08-07T22:33:52.654Z,74.50
2022-08-07T22:36:40.027Z,74.60
2022-08-07T22:39:52.605Z,75.30
2022-08-07T22:42:25.588Z,75.10
2022-08-07T22:46:21.727Z,74.70
2022-08-07T22:48:13.545Z,74.40
2022-08-07T22:51:25.187Z,76.50
2022-08-07T22:54:43.277Z,75.40
2022-08-07T22:57:50.728Z,75.50
2022-08-07T23:00:28.490Z,76.20
2022-08-07T23:03:09.792Z,76.00
2022-08-07T23:06:07.222Z,77.20
2022-08-07T23:10:04.474Z,77.10
2022-08-07T23:12:21.154Z,77.30
2022-08-07T23:15:21.895Z,77.60
2022-08-07T23:18:22.966Z,78.10
2022-08-07T23:21:20.958Z,77.80
2022-08-07T23:24:16.952Z,78.60
2022-08-07T23:27:07.867Z,78.20
2022-08-07T23:30:39.212Z,75.70
2022-08-07T23:34:36.301Z,77.60
2022-08-07T23:36:22.927Z,78.40
2022-08-07T23:39:12.529Z,77.90
2022-08-07T23:42:21.938Z,78.10
2022-08-07T23:46:01.990Z,78.90
2022-08-07T23:48:36.352Z,78.60
2022-08-07T23:52:59.709Z,78.70
2022-08-07T23:54:20.076Z,78.80
2022-08-07T23:57:00.908Z,78.40
